Time;durP1;ratioP1;P1;durP2;ratioP2;P2;SDS_P1;SDS_P2;PMS_P1;PMS_P2;Temp;Humidity;BMP_temperature;BMP_pressure;BME280_temperature;BME280_humidity;BME280_pressure;Samples;Min_cycle;Max_cycle;Signal;HPM_P1;HPM_P2
2021/12/13 00:00:00;;;;;;;49.08;35.30;;;11.10;99.90;;;;;;5021530;28;20052;-78
2021/12/13 00:03:22;;;;;;;52.00;35.10;;;11.10;99.90;;;;;;5042476;28;20033;-77
2021/12/13 00:05:54;;;;;;;46.95;33.95;;;11.10;99.90;;;;;;5019139;28;20503;-78
2021/12/13 00:08:30;;;;;;;51.47;35.22;;;11.10;99.90;;;;;;5048800;28;20500;-78
2021/12/13 00:11:14;;;;;;;50.00;35.17;;;11.10;99.90;;;;;;5043884;28;20037;-78
2021/12/13 00:13:44;;;;;;;45.55;32.38;;;11.10;99.90;;;;;;5014076;28;20036;-77
2021/12/13 00:16:11;;;;;;;48.30;31.90;;;11.10;99.90;;;;;;5013372;28;20033;-78
2021/12/13 00:18:44;;;;;;;44.17;32.88;;;11.10;99.90;;;;;;5030567;28;20033;-78
2021/12/13 00:21:23;;;;;;;42.38;31.10;;;11.10;99.90;;;;;;5019928;28;20026;-78
2021/12/13 00:23:59;;;;;;;43.83;31.27;;;11.10;99.90;;;;;;5031634;28;20037;-78
2021/12/13 00:26:35;;;;;;;41.88;30.73;;;11.10;99.90;;;;;;5031510;28;20037;-78
2021/12/13 00:29:31;;;;;;;41.40;30.58;;;11.10;99.90;;;;;;5017054;28;20038;-78
2021/12/13 00:32:26;;;;;;;44.83;31.48;;;11.10;99.90;;;;;;5029022;28;20040;-78
2021/12/13 00:34:57;;;;;;;42.47;29.67;;;11.10;99.90;;;;;;5028579;28;20076;-78
2021/12/13 00:37:35;;;;;;;44.70;31.40;;;11.10;99.90;;;;;;5051854;28;20025;-78
2021/12/13 00:40:24;;;;;;;43.25;30.23;;;11.20;99.90;;;;;;5040452;28;20510;-78
2021/12/13 00:43:00;;;;;;;42.58;28.92;;;11.10;99.90;;;;;;5036974;28;20041;-78
2021/12/13 00:45:30;;;;;;;40.70;27.30;;;11.10;99.90;;;;;;5032748;28;20034;-78
2021/12/13 00:47:58;;;;;;;42.28;26.77;;;11.20;99.90;;;;;;5045147;28;20033;-78
2021/12/13 00:50:27;;;;;;;41.22;27.10;;;11.20;99.90;;;;;;5051995;28;20086;-78
2021/12/13 00:52:54;;;;;;;41.63;27.00;;;11.20;99.90;;;;;;5042065;28;20094;-78
2021/12/13 00:55:26;;;;;;;34.47;25.35;;;11.20;99.90;;;;;;5036813;28;20083;-78
2021/12/13 00:58:12;;;;;;;36.63;24.97;;;11.20;99.90;;;;;;5043127;28;20022;-78
2021/12/13 01:00:52;;;;;;;36.63;25.40;;;11.20;99.90;;;;;;5047005;28;20033;-78
2021/12/13 01:03:42;;;;;;;40.63;25.75;;;11.10;99.90;;;;;;5049816;28;20519;-78
2021/12/13 01:06:41;;;;;;;33.67;25.00;;;11.20;99.90;;;;;;5055342;28;20028;-78
2021/12/13 01:09:55;;;;;;;38.17;24.67;;;11.20;99.90;;;;;;5056017;28;20025;-78
2021/12/13 01:12:22;;;;;;;40.47;25.70;;;11.20;99.90;;;;;;5035305;28;20052;-78
2021/12/13 01:15:10;;;;;;;37.08;25.90;;;11.10;99.90;;;;;;5037269;28;20036;-78
2021/12/13 01:20:34;;;;;;;40.78;24.58;;;11.20;99.90;;;;;;5055159;28;20033;-80
2021/12/13 01:23:07;;;;;;;34.80;24.67;;;11.20;99.90;;;;;;5044749;28;20036;-79
2021/12/13 01:28:10;;;;;;;44.53;26.83;;;11.20;99.90;;;;;;5040565;28;20037;-79
2021/12/13 01:30:40;;;;;;;41.05;25.75;;;11.20;99.90;;;;;;5040618;28;20064;-79
2021/12/13 01:33:09;;;;;;;40.65;26.27;;;11.10;99.90;;;;;;5053632;28;20040;-79
2021/12/13 01:35:40;;;;;;;36.25;25.63;;;11.10;99.90;;;;;;5053582;28;20043;-79
2021/12/13 01:38:12;;;;;;;37.58;24.48;;;11.10;99.90;;;;;;5043803;28;20120;-79
2021/12/13 01:40:42;;;;;;;34.85;24.83;;;11.10;99.90;;;;;;5036451;28;20598;-79
2021/12/13 01:43:24;;;;;;;36.97;26.60;;;11.20;99.90;;;;;;5052624;28;20044;-79
2021/12/13 01:45:53;;;;;;;39.65;26.67;;;11.10;99.90;;;;;;5054873;28;20090;-78
2021/12/13 01:48:26;;;;;;;43.63;28.10;;;11.20;99.90;;;;;;5039374;28;20041;-79
2021/12/13 01:51:04;;;;;;;39.17;27.80;;;11.10;99.90;;;;;;5035570;28;20564;-79
2021/12/13 01:53:40;;;;;;;46.33;28.45;;;11.20;99.90;;;;;;5050388;28;20033;-79
2021/12/13 01:59:15;;;;;;;38.30;27.23;;;11.20;99.90;;;;;;5038306;28;20488;-79
2021/12/13 02:01:43;;;;;;;43.58;28.75;;;11.10;99.90;;;;;;5053307;28;20037;-79
2021/12/13 02:04:13;;;;;;;40.22;28.75;;;11.20;99.90;;;;;;5045089;28;20060;-79
2021/12/13 02:06:46;;;;;;;45.28;28.65;;;11.20;99.90;;;;;;5050204;28;20021;-79
2021/12/13 02:09:20;;;;;;;44.03;29.27;;;11.20;99.90;;;;;;5035258;28;20036;-79
2021/12/13 02:11:50;;;;;;;40.08;29.52;;;11.20;99.90;;;;;;5045741;28;20033;-79
2021/12/13 02:14:20;;;;;;;45.83;31.25;;;11.20;99.90;;;;;;5052877;28;20033;-79
2021/12/13 02:19:44;;;;;;;36.63;29.05;;;11.20;99.90;;;;;;5053111;28;20036;-79
2021/12/13 02:22:37;;;;;;;41.15;29.33;;;11.20;99.90;;;;;;5041279;28;20044;-80
2021/12/13 02:25:06;;;;;;;39.13;28.98;;;11.20;99.90;;;;;;5053699;28;20040;-80
2021/12/13 02:27:34;;;;;;;42.42;30.50;;;11.20;99.90;;;;;;5043810;28;20034;-79
2021/12/13 02:30:06;;;;;;;43.03;30.65;;;11.20;99.90;;;;;;5053627;28;20025;-79
2021/12/13 02:32:35;;;;;;;44.45;29.27;;;11.20;99.90;;;;;;5045354;28;20066;-80
2021/12/13 02:35:04;;;;;;;45.78;31.83;;;11.20;99.90;;;;;;5038150;28;20427;-80
2021/12/13 02:37:30;;;;;;;51.25;34.30;;;11.20;99.90;;;;;;5042429;28;20021;-79
2021/12/13 02:39:59;;;;;;;50.42;36.17;;;11.20;99.90;;;;;;5034750;28;20033;-80
2021/12/13 02:42:27;;;;;;;50.30;35.95;;;11.20;99.90;;;;;;5050126;28;20055;-79
2021/12/13 02:45:00;;;;;;;50.75;37.20;;;11.20;99.90;;;;;;5051933;28;20021;-79
2021/12/13 02:47:39;;;;;;;;;;;11.20;99.90;;;;;;5035186;28;20487;-79
2021/12/13 02:50:12;;;;;;;56.13;38.03;;;11.20;99.90;;;;;;5039860;28;19943;-78
2021/12/13 02:52:38;;;;;;;;;;;11.20;99.90;;;;;;5043700;28;20025;-78
2021/12/13 02:55:10;;;;;;;56.03;39.13;;;11.10;99.90;;;;;;5035478;28;19916;-78
2021/12/13 02:57:44;;;;;;;57.88;39.28;;;11.10;99.90;;;;;;5043054;28;20067;-79
2021/12/13 03:00:21;;;;;;;53.55;38.40;;;11.10;99.90;;;;;;5036777;28;20029;-78
2021/12/13 03:02:50;;;;;;;49.10;36.10;;;11.10;99.90;;;;;;5046888;28;20128;-78
2021/12/13 03:05:25;;;;;;;55.40;37.28;;;11.10;99.90;;;;;;5036884;28;20045;-81
2021/12/13 03:07:53;;;;;;;54.80;36.90;;;11.10;99.90;;;;;;5041795;28;20025;-78
2021/12/13 03:10:26;;;;;;;54.53;37.22;;;11.10;99.90;;;;;;5034029;28;20033;-78
2021/12/13 03:12:52;;;;;;;50.75;35.67;;;11.20;99.90;;;;;;5038666;28;20152;-78
2021/12/13 03:15:22;;;;;;;53.45;36.35;;;11.10;99.90;;;;;;5033339;28;20484;-78
2021/12/13 03:17:56;;;;;;;44.72;34.08;;;11.10;99.90;;;;;;5037388;28;20108;-78
2021/12/13 03:20:51;;;;;;;48.75;33.95;;;11.10;99.90;;;;;;5033744;28;20559;-78
2021/12/13 03:23:43;;;;;;;45.20;33.10;;;11.10;99.90;;;;;;5044819;28;20045;-78
2021/12/13 03:26:20;;;;;;;43.85;32.75;;;11.10;99.90;;;;;;5045085;28;20021;-78
2021/12/13 03:29:05;;;;;;;41.63;32.03;;;11.10;99.90;;;;;;5037672;28;20029;-79
2021/12/13 03:31:44;;;;;;;45.10;31.90;;;11.10;99.90;;;;;;5042199;28;20037;-79
2021/12/13 03:34:16;;;;;;;43.63;32.03;;;11.10;99.90;;;;;;5053056;28;20044;-81
2021/12/13 03:36:56;;;;;;;42.73;28.03;;;11.10;99.90;;;;;;5050484;28;20028;-79
2021/12/13 03:39:50;;;;;;;40.05;30.08;;;11.00;99.90;;;;;;5036353;28;20039;-79
2021/12/13 03:42:26;;;;;;;36.47;28.58;;;11.10;99.90;;;;;;5031486;28;20048;-80
2021/12/13 03:44:56;;;;;;;37.47;29.10;;;11.10;99.90;;;;;;5051683;28;20025;-80
2021/12/13 03:47:28;;;;;;;41.17;27.30;;;11.10;99.90;;;;;;5044422;28;20017;-80
2021/12/13 03:49:58;;;;;;;36.28;27.08;;;11.10;99.90;;;;;;5033454;28;20369;-80
2021/12/13 03:52:26;;;;;;;36.47;27.67;;;11.10;99.90;;;;;;5040023;28;20033;-80
2021/12/13 03:54:55;;;;;;;41.05;27.20;;;11.10;99.90;;;;;;5048522;28;20025;-80
2021/12/13 03:57:22;;;;;;;33.00;25.70;;;11.10;99.90;;;;;;5037674;28;20116;-79
2021/12/13 03:59:49;;;;;;;34.53;25.75;;;11.00;99.90;;;;;;5041111;28;20024;-80
2021/12/13 04:02:19;;;;;;;33.40;24.50;;;11.00;99.90;;;;;;5047709;28;20545;-80
2021/12/13 04:04:58;;;;;;;30.23;23.10;;;11.00;99.90;;;;;;5051434;28;20069;-80
2021/12/13 04:07:31;;;;;;;31.45;23.75;;;11.00;99.90;;;;;;5044210;28;20025;-80
2021/12/13 04:10:11;;;;;;;31.80;23.58;;;11.00;99.90;;;;;;5033030;28;20033;-80
2021/12/13 04:12:44;;;;;;;30.15;23.33;;;10.90;99.90;;;;;;5043305;28;20061;-80
2021/12/13 04:15:18;;;;;;;35.03;22.98;;;10.90;99.90;;;;;;5051001;28;20075;-79
2021/12/13 04:17:58;;;;;;;31.40;22.45;;;10.90;99.90;;;;;;5041926;28;20022;-79
2021/12/13 04:20:31;;;;;;;28.83;22.00;;;10.80;99.90;;;;;;5032940;28;20025;-79
2021/12/13 04:23:03;;;;;;;32.83;22.67;;;10.80;99.90;;;;;;5044879;28;20045;-81
2021/12/13 04:25:33;;;;;;;33.97;23.02;;;10.80;99.90;;;;;;5035008;28;20061;-79
2021/12/13 04:28:15;;;;;;;35.85;21.83;;;10.80;99.90;;;;;;5045801;28;20021;-79
2021/12/13 04:30:50;;;;;;;33.10;23.17;;;10.80;99.90;;;;;;5039881;28;20048;-79
2021/12/13 04:33:27;;;;;;;29.15;22.15;;;10.80;99.90;;;;;;5041213;28;20045;-80
2021/12/13 04:36:21;;;;;;;30.25;22.40;;;10.80;99.90;;;;;;5037935;28;20030;-79
2021/12/13 04:39:03;;;;;;;30.17;21.83;;;10.80;99.90;;;;;;5037330;28;20033;-79
2021/12/13 04:41:34;;;;;;;32.58;22.73;;;10.80;99.90;;;;;;5039034;28;20033;-79
2021/12/13 04:44:29;;;;;;;40.10;22.35;;;10.90;99.90;;;;;;5051671;28;20477;-79
2021/12/13 04:46:55;;;;;;;32.30;21.92;;;10.90;99.90;;;;;;5050358;28;20033;-79
2021/12/13 04:49:25;;;;;;;29.85;21.30;;;10.90;99.90;;;;;;5036560;28;20120;-79
2021/12/13 04:51:58;;;;;;;34.60;22.77;;;10.90;99.90;;;;;;5038543;28;20078;-79
2021/12/13 04:54:26;;;;;;;34.60;22.95;;;10.90;99.90;;;;;;5050219;28;20099;-79
2021/12/13 04:56:55;;;;;;;31.17;22.30;;;10.90;99.90;;;;;;5050654;28;20029;-80
2021/12/13 04:59:21;;;;;;;35.17;23.40;;;10.90;99.90;;;;;;5036347;28;20029;-80
2021/12/13 05:01:51;;;;;;;37.13;23.25;;;10.90;99.90;;;;;;5039301;28;20044;-80
2021/12/13 05:04:18;;;;;;;36.53;22.98;;;10.90;99.90;;;;;;5055492;28;20477;-80
2021/12/13 05:06:44;;;;;;;38.95;23.17;;;10.90;99.90;;;;;;5039174;28;20583;-80
2021/12/13 05:09:14;;;;;;;35.55;23.65;;;10.90;99.90;;;;;;5036153;28;20112;-80
2021/12/13 05:12:05;;;;;;;37.78;22.67;;;10.90;99.90;;;;;;5028460;28;20125;-81
2021/12/13 05:14:36;;;;;;;36.08;22.27;;;10.90;99.90;;;;;;5047778;28;20163;-81
2021/12/13 05:17:15;;;;;;;34.47;23.90;;;11.00;99.90;;;;;;5038257;28;20103;-80
2021/12/13 05:19:47;;;;;;;33.60;22.67;;;11.00;99.90;;;;;;5052363;28;20376;-80
2021/12/13 05:22:14;;;;;;;37.33;23.80;;;11.00;99.90;;;;;;5048541;28;20037;-81
2021/12/13 05:24:50;;;;;;;41.13;24.67;;;10.90;99.90;;;;;;5035814;28;20382;-81
2021/12/13 05:27:25;;;;;;;37.25;24.30;;;10.90;99.90;;;;;;5030942;28;20030;-80
2021/12/13 05:30:03;;;;;;;40.22;25.25;;;10.90;99.90;;;;;;5020569;28;20022;-80
2021/12/13 05:32:36;;;;;;;37.55;24.23;;;10.90;99.90;;;;;;5017174;28;20030;-80
2021/12/13 05:35:13;;;;;;;36.30;24.17;;;10.90;99.90;;;;;;5032916;28;20402;-80
2021/12/13 05:37:45;;;;;;;39.10;24.75;;;10.90;99.90;;;;;;5024312;28;20030;-80
2021/12/13 05:40:21;;;;;;;48.40;25.30;;;10.90;99.90;;;;;;5033770;28;20451;-80
2021/12/13 05:42:52;;;;;;;36.60;24.13;;;10.90;99.90;;;;;;5020857;28;20049;-80
2021/12/13 05:45:30;;;;;;;38.22;24.65;;;10.90;99.90;;;;;;5034871;28;20480;-78
2021/12/13 05:48:03;;;;;;;38.65;25.77;;;10.90;99.90;;;;;;5036730;28;20040;-80
2021/12/13 05:50:40;;;;;;;37.35;25.10;;;10.90;99.90;;;;;;5036469;28;20053;-80
2021/12/13 05:53:23;;;;;;;33.83;23.20;;;10.90;99.90;;;;;;5040911;28;20118;-79
2021/12/13 05:56:10;;;;;;;39.33;23.85;;;10.90;99.90;;;;;;5052878;28;20036;-81
2021/12/13 05:58:47;;;;;;;42.83;25.08;;;10.90;99.90;;;;;;5053393;28;20033;-82
2021/12/13 06:01:23;;;;;;;38.33;24.40;;;10.90;99.90;;;;;;5053114;28;20020;-80
2021/12/13 06:04:20;;;;;;;41.20;25.52;;;10.90;99.90;;;;;;5029880;28;20037;-78
2021/12/13 06:06:54;;;;;;;38.78;24.45;;;10.90;99.90;;;;;;5027496;28;20029;-78
2021/12/13 06:09:49;;;;;;;33.83;23.17;;;10.90;99.90;;;;;;5037667;28;20101;-78
2021/12/13 06:12:31;;;;;;;35.85;24.48;;;10.90;99.90;;;;;;5045748;28;20049;-77
2021/12/13 06:15:27;;;;;;;39.58;23.80;;;10.90;99.90;;;;;;5034484;28;20079;-78
2021/12/13 06:18:04;;;;;;;35.08;23.20;;;10.80;99.90;;;;;;5039395;28;20072;-78
2021/12/13 06:20:37;;;;;;;34.50;22.85;;;10.90;99.90;;;;;;5053953;28;20504;-78
2021/12/13 06:23:19;;;;;;;35.58;23.25;;;10.90;99.90;;;;;;5039040;28;20037;-78
2021/12/13 06:25:47;;;;;;;39.03;23.63;;;10.90;99.90;;;;;;5034824;28;20098;-78
2021/12/13 06:28:23;;;;;;;34.20;22.33;;;10.90;99.90;;;;;;5045861;28;20052;-78
2021/12/13 06:30:55;;;;;;;37.63;23.70;;;10.90;99.90;;;;;;5035447;28;20074;-78
2021/12/13 06:33:21;;;;;;;35.10;22.10;;;10.90;99.90;;;;;;5035626;28;20025;-77
2021/12/13 06:35:54;;;;;;;40.33;23.55;;;10.90;99.90;;;;;;5033147;28;20032;-78
2021/12/13 06:38:19;;;;;;;33.40;22.23;;;10.90;99.90;;;;;;5035649;28;20036;-77
2021/12/13 06:40:54;;;;;;;38.58;21.73;;;11.00;99.90;;;;;;5035620;28;20021;-76
2021/12/13 06:43:56;;;;;;;30.60;20.17;;;11.00;99.90;;;;;;5046551;28;20556;-77
2021/12/13 06:46:22;;;;;;;36.25;21.27;;;11.00;99.90;;;;;;5053424;28;20087;-77
2021/12/13 06:48:50;;;;;;;33.97;20.92;;;11.00;99.90;;;;;;5032890;28;20498;-76
2021/12/13 06:51:19;;;;;;;33.28;21.23;;;11.00;99.90;;;;;;5034005;28;20053;-76
2021/12/13 06:54:03;;;;;;;33.03;21.02;;;11.00;99.90;;;;;;5051042;28;20052;-76
2021/12/13 06:56:31;;;;;;;32.28;20.25;;;11.00;99.90;;;;;;5029816;28;20124;-77
2021/12/13 06:58:59;;;;;;;30.10;20.90;;;11.10;99.90;;;;;;5053315;28;20032;-79
2021/12/13 07:01:35;;;;;;;33.60;21.23;;;11.10;99.90;;;;;;5051487;28;20522;-78
2021/12/13 07:04:08;;;;;;;35.50;19.75;;;11.10;99.90;;;;;;5032173;28;20472;-77
2021/12/13 07:06:35;;;;;;;28.52;19.52;;;11.10;99.90;;;;;;5032261;28;20108;-76
2021/12/13 07:09:20;;;;;;;27.70;17.52;;;11.10;99.90;;;;;;5035371;28;20025;-75
2021/12/13 07:11:52;;;;;;;33.13;19.30;;;11.20;99.90;;;;;;5034027;28;20048;-74
2021/12/13 07:14:21;;;;;;;32.10;20.73;;;11.20;99.90;;;;;;5035203;28;20506;-74
2021/12/13 07:16:52;;;;;;;30.05;18.92;;;11.20;99.90;;;;;;5031627;28;20049;-74
2021/12/13 07:19:24;;;;;;;28.52;19.33;;;11.20;99.90;;;;;;5031027;28;20025;-75
2021/12/13 07:21:59;;;;;;;34.70;19.85;;;11.20;99.90;;;;;;5041279;28;20107;-75
2021/12/13 07:24:34;;;;;;;36.53;19.25;;;11.20;99.90;;;;;;5033648;28;20037;-77
2021/12/13 07:27:08;;;;;;;32.15;21.00;;;11.20;99.90;;;;;;5045315;28;20021;-74
2021/12/13 07:29:34;;;;;;;27.75;17.67;;;11.20;99.90;;;;;;5032945;28;20170;-77
2021/12/13 07:32:23;;;;;;;28.23;19.55;;;11.20;99.90;;;;;;5033538;28;20112;-75
2021/12/13 07:35:21;;;;;;;29.00;19.63;;;11.20;99.90;;;;;;5032758;28;20033;-75
2021/12/13 07:37:52;;;;;;;27.63;19.48;;;11.20;99.90;;;;;;5036374;28;20022;-75
2021/12/13 07:40:44;;;;;;;27.90;18.13;;;11.20;99.90;;;;;;5039698;28;20028;-77
2021/12/13 07:43:46;;;;;;;31.05;19.75;;;11.20;99.90;;;;;;5053390;28;20039;-77
2021/12/13 07:46:18;;;;;;;30.75;18.25;;;11.10;99.90;;;;;;4978123;28;20038;-76
2021/12/13 07:48:43;;;;;;;28.25;18.38;;;11.10;99.90;;;;;;5023243;28;20143;-76
2021/12/13 07:51:30;;;;;;;28.08;18.45;;;11.10;99.90;;;;;;5039361;28;20739;-76
2021/12/13 07:53:59;;;;;;;28.40;18.40;;;11.10;99.90;;;;;;5043946;28;20025;-75
2021/12/13 07:56:39;;;;;;;29.48;18.00;;;11.10;99.90;;;;;;5033190;28;20443;-74
2021/12/13 07:59:10;;;;;;;27.02;17.35;;;11.00;99.90;;;;;;5042773;28;20115;-73
2021/12/13 08:01:45;;;;;;;30.10;18.90;;;11.10;99.90;;;;;;5047379;28;20031;-74
2021/12/13 08:04:14;;;;;;;25.98;16.17;;;11.10;99.90;;;;;;5033820;28;20084;-73
2021/12/13 08:06:47;;;;;;;25.17;16.63;;;11.10;99.90;;;;;;5046798;28;20152;-73
2021/12/13 08:09:22;;;;;;;29.77;17.88;;;11.20;99.90;;;;;;5037212;28;20095;-75
2021/12/13 08:11:57;;;;;;;27.77;17.23;;;11.20;99.90;;;;;;5035165;28;20095;-73
2021/12/13 08:14:31;;;;;;;27.77;17.15;;;11.20;99.90;;;;;;5033323;28;20041;-73
2021/12/13 08:17:11;;;;;;;22.23;15.68;;;11.20;99.90;;;;;;5043671;28;20481;-73
2021/12/13 08:19:38;;;;;;;24.02;16.35;;;11.30;99.90;;;;;;5048883;28;20029;-72
2021/12/13 08:22:12;;;;;;;25.38;16.23;;;11.30;99.90;;;;;;5050335;28;20048;-76
2021/12/13 08:24:47;;;;;;;24.13;14.98;;;11.30;99.90;;;;;;5048740;28;20076;-77
2021/12/13 08:27:27;;;;;;;24.88;15.40;;;11.40;99.90;;;;;;5042967;28;20057;-75
2021/12/13 08:30:24;;;;;;;21.85;14.80;;;11.30;99.90;;;;;;5044564;28;20021;-74
2021/12/13 08:32:57;;;;;;;20.00;14.48;;;11.30;99.90;;;;;;5036231;28;20049;-74
2021/12/13 08:35:23;;;;;;;21.40;14.45;;;11.20;99.90;;;;;;5047797;28;20108;-76
2021/12/13 08:37:56;;;;;;;20.27;14.63;;;11.20;99.90;;;;;;5037534;28;20061;-75
2021/12/13 08:40:28;;;;;;;25.45;14.40;;;11.20;99.90;;;;;;5034598;28;20033;-75
2021/12/13 08:42:56;;;;;;;19.15;13.25;;;11.20;99.90;;;;;;5038473;28;20039;-75
2021/12/13 08:45:31;;;;;;;18.88;13.05;;;11.20;99.90;;;;;;5034913;28;20064;-75
2021/12/13 08:48:05;;;;;;;20.30;14.60;;;11.30;99.90;;;;;;5032650;28;20022;-73
2021/12/13 08:50:38;;;;;;;23.10;13.95;;;11.30;99.90;;;;;;5024037;28;20041;-75
2021/12/13 08:53:15;;;;;;;22.38;13.93;;;11.40;99.90;;;;;;5024851;28;20049;-76
2021/12/13 08:55:58;;;;;;;23.60;13.70;;;11.40;99.90;;;;;;5023332;28;20118;-74
2021/12/13 08:58:24;;;;;;;20.40;12.55;;;11.40;99.90;;;;;;5019009;28;20072;-75
2021/12/13 09:00:53;;;;;;;21.27;12.88;;;11.40;99.90;;;;;;5015814;28;20022;-75
2021/12/13 09:03:25;;;;;;;18.02;12.50;;;11.40;99.90;;;;;;5020819;28;20037;-75
2021/12/13 09:06:12;;;;;;;21.17;13.05;;;11.50;99.90;;;;;;5032216;28;20469;-75
2021/12/13 09:08:46;;;;;;;19.25;13.23;;;11.40;99.90;;;;;;5037195;28;20029;-75
2021/12/13 09:11:45;;;;;;;21.48;13.13;;;11.50;99.90;;;;;;5033836;28;20117;-74
2021/12/13 09:14:23;;;;;;;21.13;13.70;;;11.50;99.90;;;;;;5035584;28;20128;-75
2021/12/13 09:17:13;;;;;;;22.05;13.95;;;11.40;99.90;;;;;;5041628;28;20027;-75
2021/12/13 09:19:47;;;;;;;18.05;11.15;;;11.40;99.90;;;;;;5053163;28;20446;-75
2021/12/13 09:22:24;;;;;;;21.08;13.15;;;11.40;99.90;;;;;;5046920;28;20028;-75
2021/12/13 09:24:57;;;;;;;19.85;13.45;;;11.40;99.90;;;;;;5044382;28;20054;-74
2021/12/13 09:27:28;;;;;;;18.38;12.77;;;11.40;99.90;;;;;;5037967;28;20018;-75
2021/12/13 09:30:17;;;;;;;18.48;11.18;;;11.40;99.90;;;;;;5047589;28;20039;-75
2021/12/13 09:33:18;;;;;;;17.90;11.25;;;11.40;99.90;;;;;;5050548;28;20028;-75
2021/12/13 09:35:58;;;;;;;17.58;11.90;;;11.50;99.90;;;;;;5037076;28;20164;-75
2021/12/13 09:38:42;;;;;;;17.77;11.82;;;11.50;99.90;;;;;;5041989;28;20033;-75
2021/12/13 09:41:29;;;;;;;18.58;12.68;;;11.50;99.90;;;;;;5034983;28;20040;-75
2021/12/13 09:44:01;;;;;;;17.00;11.57;;;11.60;99.90;;;;;;5039236;28;20450;-75
2021/12/13 09:46:48;;;;;;;21.33;13.38;;;11.60;99.90;;;;;;5051782;28;20021;-75
2021/12/13 09:49:23;;;;;;;19.42;12.68;;;11.50;99.90;;;;;;5037078;28;20041;-75
2021/12/13 09:52:10;;;;;;;17.23;12.48;;;11.50;99.90;;;;;;5034640;28;20428;-75
2021/12/13 09:54:53;;;;;;;16.48;11.48;;;11.50;99.90;;;;;;5036563;28;20036;-75
2021/12/13 09:57:24;;;;;;;16.02;11.65;;;11.50;99.90;;;;;;5035812;28;20040;-75
2021/12/13 09:59:54;;;;;;;16.80;11.32;;;11.50;99.90;;;;;;5034841;28;20021;-75
2021/12/13 10:02:26;;;;;;;15.50;11.30;;;11.60;99.90;;;;;;5041558;28;20029;-74
2021/12/13 10:04:53;;;;;;;14.53;9.83;;;11.60;99.90;;;;;;5034209;28;20043;-75
2021/12/13 10:07:25;;;;;;;12.80;9.57;;;11.60;99.90;;;;;;5036565;28;20021;-75
2021/12/13 10:09:57;;;;;;;16.13;10.48;;;11.60;99.90;;;;;;5041790;28;20048;-75
2021/12/13 10:12:31;;;;;;;17.17;10.07;;;11.60;99.90;;;;;;5043579;28;20097;-75
2021/12/13 10:15:13;;;;;;;14.63;10.40;;;11.70;99.90;;;;;;5045935;28;20038;-74
2021/12/13 10:17:42;;;;;;;19.33;10.82;;;11.60;99.90;;;;;;5043164;28;20029;-74
2021/12/13 10:20:18;;;;;;;16.30;11.18;;;11.60;99.90;;;;;;5046650;28;20044;-74
2021/12/13 10:22:45;;;;;;;15.00;9.75;;;11.60;99.90;;;;;;5040953;28;20037;-79
2021/12/13 10:25:20;;;;;;;15.75;9.98;;;11.50;99.90;;;;;;5045755;28;20033;-73
2021/12/13 10:27:47;;;;;;;14.15;9.35;;;11.50;99.90;;;;;;5050093;28;20071;-74
2021/12/13 10:30:29;;;;;;;15.75;9.70;;;11.50;99.90;;;;;;5052153;28;20057;-74
2021/12/13 10:32:55;;;;;;;13.73;9.00;;;11.50;99.90;;;;;;5047663;28;20499;-75
2021/12/13 10:35:33;;;;;;;11.95;9.30;;;11.50;99.90;;;;;;5036471;28;20028;-75
2021/12/13 10:38:05;;;;;;;11.77;8.85;;;11.50;99.90;;;;;;5041320;28;20052;-75
2021/12/13 10:40:36;;;;;;;13.77;9.30;;;11.40;99.90;;;;;;5042676;28;20155;-77
2021/12/13 10:43:27;;;;;;;12.90;9.05;;;11.40;99.90;;;;;;5045484;28;20499;-73
2021/12/13 10:45:57;;;;;;;10.95;8.00;;;11.40;99.90;;;;;;5033464;28;20034;-77
2021/12/13 10:48:27;;;;;;;10.48;8.73;;;11.50;99.90;;;;;;5048453;28;20025;-75
2021/12/13 10:51:24;;;;;;;12.98;7.57;;;11.50;99.90;;;;;;5037071;28;20041;-74
2021/12/13 10:53:53;;;;;;;10.35;8.00;;;11.50;99.90;;;;;;5037038;28;20033;-76
2021/12/13 10:56:24;;;;;;;13.95;8.77;;;11.50;99.90;;;;;;5051156;28;20040;-76
2021/12/13 10:59:00;;;;;;;10.38;8.45;;;11.50;99.90;;;;;;5046973;28;20021;-75
2021/12/13 11:01:30;;;;;;;13.07;8.27;;;11.50;99.90;;;;;;5039131;28;20084;-79
2021/12/13 11:03:59;;;;;;;14.43;8.75;;;11.50;99.90;;;;;;5038998;28;20048;-77
2021/12/13 11:06:25;;;;;;;11.40;7.85;;;11.50;99.90;;;;;;5051568;28;20099;-77
2021/12/13 11:08:51;;;;;;;11.18;7.97;;;11.50;99.90;;;;;;5038290;28;20025;-76
2021/12/13 11:11:45;;;;;;;13.15;8.90;;;11.50;99.90;;;;;;5036711;28;20043;-74
2021/12/13 11:14:16;;;;;;;;;;;11.50;99.90;;;;;;5034624;28;20073;-75
2021/12/13 11:16:51;;;;;;;12.50;8.02;;;11.50;99.90;;;;;;5046032;28;19967;-74
2021/12/13 11:19:21;;;;;;;10.43;7.35;;;11.50;99.90;;;;;;5022363;28;20033;-74
2021/12/13 11:21:51;;;;;;;9.60;7.80;;;11.50;99.90;;;;;;5040204;28;20094;-73
2021/12/13 11:24:20;;;;;;;13.35;7.68;;;11.50;99.90;;;;;;5044408;28;20432;-74
2021/12/13 11:26:50;;;;;;;14.13;8.40;;;11.50;99.90;;;;;;5046338;28;20107;-73
2021/12/13 11:29:16;;;;;;;15.32;8.50;;;11.40;99.90;;;;;;5048541;28;20024;-73
2021/12/13 11:31:55;;;;;;;14.63;7.75;;;11.50;99.90;;;;;;5037595;28;20053;-73
2021/12/13 11:34:58;;;;;;;13.77;7.55;;;11.50;99.90;;;;;;5045193;28;20041;-74
2021/12/13 11:37:54;;;;;;;12.43;8.88;;;11.40;99.90;;;;;;5038975;28;20025;-74
2021/12/13 11:40:57;;;;;;;12.45;7.72;;;11.50;99.90;;;;;;5041251;28;20471;-74
2021/12/13 11:43:33;;;;;;;;;;;11.40;99.90;;;;;;5041988;28;20511;-74
2021/12/13 11:46:55;;;;;;;12.88;7.57;;;11.50;99.90;;;;;;5047282;28;20380;-73
2021/12/13 11:49:48;;;;;;;12.27;7.75;;;11.40;99.90;;;;;;5038001;28;20025;-73
2021/12/13 11:52:42;;;;;;;11.68;7.65;;;11.50;99.90;;;;;;5042379;28;20057;-73
2021/12/13 11:55:13;;;;;;;;;;;11.50;99.90;;;;;;5048134;28;20043;-73
2021/12/13 11:58:00;;;;;;;10.80;7.47;;;11.50;99.90;;;;;;5031975;28;19920;-73
2021/12/13 12:00:46;;;;;;;8.23;6.30;;;11.50;99.90;;;;;;5023808;28;20500;-75
2021/12/13 12:03:41;;;;;;;11.40;6.45;;;11.50;99.90;;;;;;5014451;28;20358;-73
2021/12/13 12:06:25;;;;;;;12.73;7.85;;;11.50;99.90;;;;;;5020500;28;20025;-75
2021/12/13 12:09:13;;;;;;;12.30;7.03;;;11.50;99.90;;;;;;5026715;28;20025;-76
2021/12/13 12:11:39;;;;;;;9.70;7.13;;;11.40;99.90;;;;;;5032939;28;20049;-74
2021/12/13 12:14:12;;;;;;;11.40;7.40;;;11.50;99.90;;;;;;5041910;28;20047;-74
2021/12/13 12:16:47;;;;;;;11.48;7.28;;;11.50;99.90;;;;;;5036965;28;20044;-74
2021/12/13 12:19:19;;;;;;;10.95;7.20;;;11.50;99.90;;;;;;5036481;28;20029;-74
2021/12/13 12:21:47;;;;;;;10.10;6.57;;;11.50;99.90;;;;;;5033157;28;20022;-74
2021/12/13 12:24:26;;;;;;;7.45;5.90;;;11.40;99.90;;;;;;5038292;28;20470;-75
2021/12/13 12:26:59;;;;;;;9.68;6.85;;;11.40;99.90;;;;;;5041538;28;20031;-74
2021/12/13 12:29:33;;;;;;;7.22;5.72;;;11.50;99.90;;;;;;5033940;28;20025;-74
2021/12/13 12:32:06;;;;;;;8.70;6.45;;;11.40;99.90;;;;;;5032777;28;20025;-73
2021/12/13 12:34:34;;;;;;;7.40;5.40;;;11.50;99.90;;;;;;5036177;28;20026;-73
2021/12/13 12:36:59;;;;;;;9.02;6.55;;;11.50;99.90;;;;;;5032612;28;20026;-74
2021/12/13 12:39:53;;;;;;;10.38;6.20;;;11.60;99.90;;;;;;5032715;28;20033;-73
2021/12/13 12:42:35;;;;;;;;;;;11.60;99.90;;;;;;5030747;28;20030;-74
2021/12/13 12:45:21;;;;;;;11.70;6.45;;;11.60;99.90;;;;;;5032848;28;19915;-74
2021/12/13 12:47:47;;;;;;;9.23;6.22;;;11.60;99.70;;;;;;5035051;28;20065;-74
2021/12/13 12:50:32;;;;;;;9.55;6.95;;;11.60;99.70;;;;;;5049294;28;20071;-73
2021/12/13 12:53:04;;;;;;;9.70;6.13;;;11.60;99.90;;;;;;5035853;28;20124;-73
2021/12/13 12:55:55;;;;;;;7.85;6.25;;;11.60;99.90;;;;;;5046871;28;20053;-74
2021/12/13 12:58:28;;;;;;;8.38;6.47;;;11.70;99.90;;;;;;5044403;28;20032;-74
2021/12/13 13:00:57;;;;;;;8.70;6.22;;;11.70;99.70;;;;;;5039687;28;20480;-75
2021/12/13 13:03:26;;;;;;;7.88;6.25;;;11.70;99.70;;;;;;5045093;28;20045;-75
2021/12/13 13:06:09;;;;;;;8.27;6.38;;;11.70;99.60;;;;;;5044161;28;20025;-75
2021/12/13 13:08:39;;;;;;;8.23;6.20;;;11.60;99.60;;;;;;5038722;28;20524;-74
2021/12/13 13:13:51;;;;;;;7.95;5.97;;;11.60;99.60;;;;;;5035944;28;20441;-73
2021/12/13 13:16:19;;;;;;;7.32;6.07;;;11.60;99.60;;;;;;5046526;28;20029;-74
2021/12/13 13:18:46;;;;;;;9.18;6.15;;;11.60;99.90;;;;;;5038055;28;20025;-72
2021/12/13 13:21:12;;;;;;;8.85;6.40;;;11.60;99.70;;;;;;5038187;28;20025;-74
2021/12/13 13:23:44;;;;;;;7.18;5.65;;;11.50;99.80;;;;;;5038829;28;20040;-75
2021/12/13 13:26:11;;;;;;;12.40;7.00;;;11.60;99.90;;;;;;5044185;28;20021;-74
2021/12/13 13:28:46;;;;;;;8.65;7.25;;;11.50;99.90;;;;;;5037346;28;20412;-75